createdAt,value
2023-01-28T00:00:42.385Z,0.70
2023-01-28T00:03:45.102Z,0.80
2023-01-28T00:06:47.465Z,0.80
2023-01-28T00:09:51.147Z,1.02
2023-01-28T00:12:53.468Z,1.30
2023-01-28T00:15:56.179Z,0.80
2023-01-28T00:18:58.462Z,0.90
2023-01-28T00:22:00.780Z,0.70
2023-01-28T00:25:05.190Z,0.60
2023-01-28T00:28:07.411Z,1.00
2023-01-28T00:31:12.469Z,1.27
2023-01-28T00:34:15.013Z,0.75
2023-01-28T00:37:17.309Z,1.02
2023-01-28T00:40:21.003Z,0.80
2023-01-28T00:43:23.307Z,1.08
2023-01-28T00:46:30.732Z,1.10
2023-01-28T00:49:33.171Z,0.70
2023-01-28T00:52:35.429Z,1.13
2023-01-28T00:55:39.118Z,0.80
2023-01-28T00:58:41.546Z,0.80
2023-01-28T01:01:49.665Z,0.82
2023-01-28T01:05:01.441Z,0.90
2023-01-28T01:08:04.016Z,0.70
2023-01-28T01:11:08.324Z,0.90
2023-01-28T01:14:10.996Z,0.95
2023-01-28T01:17:15.585Z,0.93
2023-01-28T01:20:20.767Z,1.02
2023-01-28T01:23:23.028Z,0.90
2023-01-28T01:26:29.989Z,0.95
2023-01-28T01:29:33.896Z,0.70
2023-01-28T01:32:36.365Z,0.93
2023-01-28T01:35:38.817Z,0.73
2023-01-28T01:38:41.380Z,0.88
2023-01-28T01:41:45.831Z,1.15
2023-01-28T01:45:00.550Z,2.17
2023-01-28T01:48:05.533Z,1.52
2023-01-28T01:51:09.987Z,1.55
2023-01-28T01:54:13.747Z,0.90
2023-01-28T01:57:24.514Z,0.88
2023-01-28T02:00:27.384Z,1.33
2023-01-28T02:03:37.104Z,1.10
2023-01-28T02:06:40.095Z,1.40
2023-01-28T02:09:42.316Z,1.10
2023-01-28T02:12:51.831Z,1.20
2023-01-28T02:15:55.241Z,1.35
2023-01-28T02:18:58.893Z,1.58
2023-01-28T02:22:08.170Z,1.65
2023-01-28T02:25:34.814Z,1.42
2023-01-28T02:28:41.608Z,2.03
2023-01-28T02:31:46.843Z,1.75
2023-01-28T02:34:53.133Z,1.48
2023-01-28T02:38:01.872Z,1.92
2023-01-28T02:41:06.800Z,1.58
2023-01-28T02:44:10.400Z,1.80
2023-01-28T02:47:31.985Z,1.98
2023-01-28T02:50:39.745Z,1.90
2023-01-28T02:53:47.933Z,1.85
2023-01-28T02:56:56.739Z,2.00
2023-01-28T03:00:06.227Z,1.92
2023-01-28T03:03:14.491Z,2.05
2023-01-28T03:06:21.932Z,1.58
2023-01-28T03:09:27.902Z,1.42
2023-01-28T03:12:50.381Z,1.67
2023-01-28T03:16:12.738Z,3.35
2023-01-28T03:19:34.969Z,1.92
2023-01-28T03:22:57.755Z,1.80
2023-01-28T03:26:20.507Z,1.50
2023-01-28T03:29:42.763Z,2.08
2023-01-28T03:33:07.818Z,1.83
2023-01-28T03:36:29.552Z,2.03
2023-01-28T03:39:31.967Z,2.28
2023-01-28T03:42:34.278Z,2.03
2023-01-28T03:45:58.343Z,1.83
2023-01-28T03:49:02.048Z,1.85
2023-01-28T03:52:04.576Z,1.80
2023-01-28T03:55:13.961Z,1.48
2023-01-28T03:58:17.984Z,1.35
2023-01-28T04:01:21.515Z,1.45
2023-01-28T04:04:25.672Z,2.00
2023-01-28T04:07:30.786Z,1.70
2023-01-28T04:10:47.729Z,1.83
2023-01-28T04:13:57.397Z,1.80
2023-01-28T04:17:01.254Z,1.50
2023-01-28T04:20:05.856Z,1.67
2023-01-28T04:23:09.093Z,1.27
2023-01-28T04:26:11.383Z,1.67
2023-01-28T04:29:13.724Z,1.60
2023-01-28T04:32:16.010Z,1.63
2023-01-28T04:35:38.153Z,1.98
2023-01-28T04:38:47.537Z,2.10
2023-01-28T04:42:05.131Z,1.55
2023-01-28T04:45:23.867Z,2.25
2023-01-28T04:48:36.791Z,1.83
2023-01-28T04:52:18.490Z,2.47
2023-01-28T04:55:31.892Z,2.00
2023-01-28T04:58:35.771Z,2.60
2023-01-28T05:01:41.877Z,1.85
2023-01-28T05:04:47.299Z,2.17
2023-01-28T05:08:05.714Z,1.85
2023-01-28T05:11:08.331Z,1.77
2023-01-28T05:14:10.751Z,1.90
2023-01-28T05:17:20.405Z,1.50
2023-01-28T05:20:25.996Z,1.77
2023-01-28T05:23:32.660Z,1.80
2023-01-28T05:26:34.975Z,2.75
2023-01-28T05:29:39.327Z,2.55
2023-01-28T05:32:41.999Z,2.28
2023-01-28T05:35:44.482Z,2.15
2023-01-28T05:38:48.256Z,2.22
2023-01-28T05:41:50.659Z,1.95
2023-01-28T05:44:53.264Z,1.75
2023-01-28T05:48:12.420Z,2.20
2023-01-28T05:51:39.335Z,2.05
2023-01-28T05:54:44.648Z,2.22
2023-01-28T05:57:48.324Z,2.22
2023-01-28T06:00:54.712Z,2.08
2023-01-28T06:04:02.111Z,2.33
2023-01-28T06:07:06.402Z,1.70
2023-01-28T06:10:11.303Z,1.77
2023-01-28T06:13:14.764Z,2.53
2023-01-28T06:16:35.779Z,1.42
2023-01-28T06:20:05.057Z,1.63
2023-01-28T06:23:08.404Z,1.50
2023-01-28T06:26:12.009Z,1.90
2023-01-28T06:29:16.921Z,1.45
2023-01-28T06:32:19.153Z,1.60
2023-01-28T06:35:21.820Z,1.58
2023-01-28T06:38:26.498Z,1.40
2023-01-28T06:41:30.222Z,1.52
2023-01-28T06:44:32.428Z,1.63
2023-01-28T06:47:34.942Z,1.90
2023-01-28T06:50:37.427Z,2.47
2023-01-28T06:53:39.876Z,2.58
2023-01-28T06:56:44.299Z,3.28
2023-01-28T06:59:46.684Z,2.83
2023-01-28T07:02:48.999Z,3.28
2023-01-28T07:05:51.252Z,3.40
2023-01-28T07:08:54.066Z,4.45
2023-01-28T07:11:58.534Z,3.80
2023-01-28T07:15:02.873Z,4.15
2023-01-28T07:18:05.571Z,3.97
2023-01-28T07:21:09.553Z,4.00
2023-01-28T07:24:12.537Z,3.63
2023-01-28T07:27:16.268Z,3.28
2023-01-28T07:30:19.880Z,3.05
2023-01-28T07:33:22.242Z,3.22
2023-01-28T07:36:24.596Z,3.63
2023-01-28T07:39:26.928Z,3.15
2023-01-28T07:42:30.556Z,3.28
2023-01-28T07:45:38.598Z,3.13
2023-01-28T07:48:40.845Z,3.20
2023-01-28T07:51:43.248Z,3.55
2023-01-28T07:54:45.945Z,3.05
2023-01-28T07:57:50.778Z,3.85
2023-01-28T08:00:57.070Z,3.70
2023-01-28T08:03:59.426Z,3.20
2023-01-28T08:07:01.704Z,3.63
2023-01-28T08:10:04.660Z,4.18
2023-01-28T08:13:10.072Z,4.03
2023-01-28T08:16:15.182Z,3.55
2023-01-28T08:19:18.791Z,4.72
2023-01-28T08:22:25.007Z,3.60
2023-01-28T08:25:27.259Z,3.58
2023-01-28T08:28:30.941Z,3.53
2023-01-28T08:31:33.364Z,3.92
2023-01-28T08:34:35.751Z,3.67
2023-01-28T08:37:37.943Z,5.03
2023-01-28T08:40:40.230Z,4.57
2023-01-28T08:43:43.972Z,4.35
2023-01-28T08:46:46.278Z,4.22
2023-01-28T08:49:48.602Z,4.90
2023-01-28T08:52:55.756Z,4.30
2023-01-28T08:55:58.143Z,3.53
2023-01-28T08:59:01.835Z,3.38
2023-01-28T09:02:04.214Z,4.00
2023-01-28T09:05:10.592Z,3.53
2023-01-28T09:08:14.067Z,3.63
2023-01-28T09:11:16.423Z,2.75
2023-01-28T09:14:22.147Z,2.67
2023-01-28T09:17:24.475Z,2.42
2023-01-28T09:20:27.325Z,2.65
2023-01-28T09:23:29.603Z,2.92
2023-01-28T09:26:34.547Z,2.63
2023-01-28T09:29:38.699Z,2.70
2023-01-28T09:32:40.985Z,2.83
2023-01-28T09:35:43.461Z,2.33
2023-01-28T09:38:46.026Z,2.70
2023-01-28T09:41:55.479Z,2.25
2023-01-28T09:45:04.326Z,3.30
2023-01-28T09:48:11.441Z,3.95
2023-01-28T09:51:27.094Z,4.68
2023-01-28T09:54:34.548Z,5.22
2023-01-28T09:57:40.468Z,6.90
2023-01-28T10:00:50.260Z,5.50
2023-01-28T10:03:54.825Z,5.25
2023-01-28T10:07:06.908Z,5.30
2023-01-28T10:13:24.348Z,5.75
2023-01-28T10:16:34.399Z,6.15
2023-01-28T10:19:38.445Z,6.00
2023-01-28T10:22:44.310Z,6.22
2023-01-28T10:25:48.387Z,5.25
2023-01-28T10:28:55.028Z,5.78
2023-01-28T10:32:06.540Z,6.30
2023-01-28T10:35:09.117Z,6.90
2023-01-28T10:38:16.475Z,5.60
2023-01-28T10:41:21.463Z,5.35
2023-01-28T10:44:31.247Z,5.00
2023-01-28T10:47:39.698Z,5.65
2023-01-28T10:50:50.833Z,5.25
2023-01-28T10:53:53.056Z,4.63
2023-01-28T10:56:58.100Z,4.30
2023-01-28T11:00:10.878Z,5.20
2023-01-28T11:03:18.839Z,4.28
2023-01-28T11:06:25.536Z,5.35
2023-01-28T11:09:30.793Z,5.07
2023-01-28T11:12:35.809Z,4.72
2023-01-28T11:15:41.509Z,4.82
2023-01-28T11:18:51.298Z,5.18
2023-01-28T11:21:55.991Z,4.82
2023-01-28T11:25:01.049Z,4.90
2023-01-28T11:28:18.683Z,5.40
2023-01-28T11:31:24.154Z,4.82
2023-01-28T11:34:29.676Z,5.70
2023-01-28T11:37:31.990Z,5.95
2023-01-28T11:40:34.194Z,4.60
2023-01-28T11:43:36.554Z,5.15
2023-01-28T11:47:00.582Z,5.40
2023-01-28T11:50:22.077Z,4.95
2023-01-28T11:53:41.498Z,5.38
2023-01-28T11:56:53.879Z,5.47
2023-01-28T12:00:27.623Z,4.97
2023-01-28T12:03:52.077Z,5.10
2023-01-28T12:07:11.389Z,4.97
2023-01-28T12:13:37.582Z,4.72
2023-01-28T12:16:50.303Z,4.50
2023-01-28T12:20:01.534Z,4.70
2023-01-28T12:24:14.526Z,3.80
2023-01-28T12:28:13.097Z,4.45
2023-01-28T12:31:53.909Z,4.93
2023-01-28T12:35:18.072Z,4.95
2023-01-28T12:38:33.579Z,4.60
2023-01-28T12:42:10.517Z,4.45
2023-01-28T12:45:18.710Z,6.00
2023-01-28T12:58:51.626Z,4.90
2023-01-28T13:02:39.865Z,4.63
2023-01-28T13:16:11.821Z,5.00
2023-01-28T13:19:51.207Z,4.93
2023-01-28T13:24:04.783Z,5.03
2023-01-28T13:27:30.637Z,5.05
2023-01-28T13:30:51.424Z,5.22
2023-01-28T13:35:03.776Z,4.30
2023-01-28T13:38:42.960Z,4.47
2023-01-28T13:42:36.417Z,4.97
2023-01-28T13:45:53.573Z,5.20
2023-01-28T13:49:00.029Z,6.10
2023-01-28T13:52:19.017Z,5.10
2023-01-28T13:56:19.833Z,5.00
2023-01-28T14:11:09.242Z,4.65
2023-01-28T14:14:33.348Z,4.60
2023-01-28T14:17:43.296Z,4.97
2023-01-28T14:20:48.267Z,4.53
2023-01-28T14:23:55.463Z,5.22
2023-01-28T14:27:09.192Z,6.05
2023-01-28T14:30:20.729Z,5.65
2023-01-28T14:33:26.016Z,5.00
2023-01-28T14:36:32.375Z,4.65
2023-01-28T14:39:41.464Z,5.07
2023-01-28T14:42:46.405Z,5.63
2023-01-28T14:46:08.771Z,5.35
2023-01-28T14:49:27.862Z,4.72
2023-01-28T14:53:04.128Z,4.90
2023-01-28T14:56:25.576Z,4.60
2023-01-28T14:59:45.211Z,5.60
2023-01-28T15:03:09.867Z,5.15
2023-01-28T15:06:25.952Z,5.30
2023-01-28T15:09:40.560Z,5.22
2023-01-28T15:13:08.444Z,5.72
2023-01-28T15:17:08.147Z,5.57
2023-01-28T15:20:33.479Z,5.32
2023-01-28T15:23:41.743Z,5.43
2023-01-28T15:27:05.111Z,4.80
2023-01-28T15:30:27.050Z,5.18
2023-01-28T15:33:39.033Z,4.40
2023-01-28T15:36:54.746Z,4.50
2023-01-28T15:40:29.175Z,4.75
2023-01-28T15:43:53.058Z,5.00
2023-01-28T15:47:21.832Z,4.90
2023-01-28T15:51:21.058Z,5.78
2023-01-28T15:55:11.191Z,5.40
2023-01-28T15:58:37.555Z,7.18
2023-01-28T16:02:46.759Z,5.88
2023-01-28T16:06:53.086Z,6.35
2023-01-28T16:11:09.025Z,7.45
2023-01-28T16:18:58.287Z,5.95
2023-01-28T16:22:08.937Z,6.72
2023-01-28T16:26:29.307Z,6.65
2023-01-28T16:34:39.815Z,6.57
2023-01-28T16:46:16.041Z,6.97
2023-01-28T16:49:27.943Z,8.73
2023-01-28T16:52:53.374Z,7.57
2023-01-28T16:56:07.092Z,7.32
2023-01-28T16:59:13.206Z,7.97
2023-01-28T17:02:19.513Z,6.70
2023-01-28T17:05:23.377Z,7.18
2023-01-28T17:08:29.139Z,6.80
2023-01-28T17:11:34.432Z,6.57
2023-01-28T17:14:37.236Z,7.93
2023-01-28T17:17:41.360Z,7.53
2023-01-28T17:20:44.445Z,6.60
2023-01-28T17:23:54.630Z,6.72
2023-01-28T17:26:58.593Z,7.63
2023-01-28T17:30:01.002Z,7.22
2023-01-28T17:33:05.637Z,8.45
2023-01-28T17:36:08.836Z,7.97
2023-01-28T17:39:11.136Z,7.25
2023-01-28T17:42:13.486Z,9.52
2023-01-28T17:45:17.174Z,10.15
2023-01-28T17:48:21.094Z,8.88
2023-01-28T17:51:24.823Z,9.95
2023-01-28T17:54:27.196Z,7.85
2023-01-28T17:57:29.526Z,8.90
2023-01-28T18:00:33.328Z,7.57
2023-01-28T18:03:36.992Z,7.88
2023-01-28T18:06:39.212Z,10.43
2023-01-28T18:09:43.114Z,9.35
2023-01-28T18:12:45.498Z,8.25
2023-01-28T18:15:47.763Z,8.48
2023-01-28T18:18:51.494Z,8.35
2023-01-28T18:21:55.057Z,9.70
2023-01-28T18:24:57.386Z,10.02
2023-01-28T18:27:59.789Z,8.75
2023-01-28T18:31:05.336Z,9.02
2023-01-28T18:34:09.297Z,8.75
2023-01-28T18:37:11.630Z,9.10
2023-01-28T18:40:14.011Z,9.57
2023-01-28T18:43:16.365Z,9.60
2023-01-28T18:46:40.614Z,9.68
2023-01-28T18:49:44.309Z,9.20
2023-01-28T18:52:46.774Z,10.02
2023-01-28T18:55:49.809Z,10.90
2023-01-28T18:58:55.778Z,9.32
2023-01-28T19:01:58.057Z,8.93
2023-01-28T19:05:01.934Z,10.05
2023-01-28T19:08:04.957Z,9.77
2023-01-28T19:11:07.396Z,10.13
2023-01-28T19:14:11.522Z,10.32
2023-01-28T19:17:13.851Z,11.40
2023-01-28T19:20:18.386Z,11.10
2023-01-28T19:23:21.018Z,12.02
2023-01-28T19:26:24.065Z,11.30
2023-01-28T19:29:28.479Z,11.18
2023-01-28T19:32:31.011Z,11.60
2023-01-28T19:35:35.890Z,12.90
2023-01-28T19:38:38.085Z,13.65
2023-01-28T19:41:40.698Z,12.82
2023-01-28T19:44:43.104Z,12.23
2023-01-28T19:47:45.360Z,12.38
2023-01-28T19:50:49.094Z,12.48
2023-01-28T19:53:52.387Z,15.55
2023-01-28T19:56:54.658Z,12.75
2023-01-28T19:59:56.959Z,12.95
2023-01-28T20:02:59.241Z,13.15
2023-01-28T20:06:04.864Z,13.80
2023-01-28T20:09:09.178Z,14.00
2023-01-28T20:12:14.850Z,14.35
2023-01-28T20:15:17.553Z,15.80
2023-01-28T20:18:19.977Z,14.20
2023-01-28T20:21:24.209Z,16.02
2023-01-28T20:24:26.644Z,15.40
2023-01-28T20:27:28.913Z,14.00
2023-01-28T20:30:31.273Z,14.52
2023-01-28T20:33:34.161Z,15.77
2023-01-28T20:36:37.774Z,14.70
2023-01-28T20:39:40.005Z,15.00
2023-01-28T20:42:42.417Z,14.18
2023-01-28T20:45:44.803Z,14.75
2023-01-28T20:48:47.514Z,14.80
2023-01-28T20:51:51.324Z,14.40
2023-01-28T20:54:53.850Z,16.08
2023-01-28T20:57:56.279Z,16.02
2023-01-28T21:00:58.614Z,14.13
2023-01-28T21:04:01.307Z,16.02
2023-01-28T21:07:05.005Z,16.42
2023-01-28T21:10:08.498Z,15.63
2023-01-28T21:13:11.239Z,16.58
2023-01-28T21:16:13.567Z,15.75
2023-01-28T21:19:16.023Z,13.40
2023-01-28T21:22:20.300Z,16.08
2023-01-28T21:25:23.042Z,13.82
2023-01-28T21:28:26.660Z,14.45
2023-01-28T21:31:28.975Z,14.45
2023-01-28T21:34:31.279Z,14.30
2023-01-28T21:37:34.942Z,14.45
2023-01-28T21:40:37.819Z,16.02
2023-01-28T21:43:40.210Z,14.57
2023-01-28T21:46:42.622Z,15.40
2023-01-28T21:49:44.929Z,18.08
2023-01-28T21:52:49.624Z,18.35
2023-01-28T21:55:51.898Z,15.13
2023-01-28T21:59:14.085Z,16.75
2023-01-28T22:02:16.476Z,15.25
2023-01-28T22:05:18.737Z,17.27
2023-01-28T22:08:22.363Z,15.68
2023-01-28T22:11:24.571Z,17.70
2023-01-28T22:14:27.260Z,14.52
2023-01-28T22:17:29.508Z,16.40
2023-01-28T22:20:31.815Z,15.32
2023-01-28T22:23:35.786Z,16.88
2023-01-28T22:26:38.126Z,15.68
2023-01-28T22:29:40.373Z,14.65
2023-01-28T22:32:43.744Z,15.80
2023-01-28T22:35:46.043Z,18.58
2023-01-28T22:38:49.692Z,17.80
2023-01-28T22:41:52.135Z,17.70
2023-01-28T22:44:54.314Z,17.30
2023-01-28T22:47:58.033Z,17.00
2023-01-28T22:51:04.189Z,17.25
2023-01-28T22:54:09.074Z,15.45
2023-01-28T22:57:11.396Z,17.80
2023-01-28T23:00:15.501Z,15.55
2023-01-28T23:03:18.309Z,13.57
2023-01-28T23:06:21.769Z,17.48
2023-01-28T23:09:25.569Z,15.20
2023-01-28T23:12:28.099Z,14.95
2023-01-28T23:15:48.873Z,14.65
2023-01-28T23:19:09.688Z,14.93
2023-01-28T23:22:36.537Z,13.82
2023-01-28T23:25:40.277Z,16.38
2023-01-28T23:28:42.557Z,16.48
2023-01-28T23:31:46.732Z,18.48
2023-01-28T23:34:49.024Z,17.52
2023-01-28T23:37:51.675Z,19.17
2023-01-28T23:40:55.353Z,18.58
2023-01-28T23:43:57.587Z,16.85
2023-01-28T23:46:59.963Z,16.48
2023-01-28T23:50:02.666Z,15.60
2023-01-28T23:53:12.917Z,15.55
2023-01-28T23:56:16.680Z,16.92
2023-01-28T23:59:19.222Z,16.50
